首页
METAR-TAF:

METAR-TAF

机场 :

兹瓦尔特诺茨国际机场

葉里溫, 亚美尼亚

纬度: 40-08-50N, 经度: 044-23-45E, 海拔: 865米

当前天气观测

该预报发布于40分钟前的02:30 UTC
风速2节,风向多变
温度 14°C
湿度 63%
气压 1013 hPa
能见度10公里或以上

METAR: UDYZ 010230Z VRB02KT 9999 NSC 14/07 Q1013 R09/010070 NOSIG

时间: 07:10 (03:10 UTC)

预报

该预报发布于3小时和52分钟前的23:18 UTC
预报有效从01日的 00点(UTC)到 01日的 24点(UTC)
风速6节,风向南转南东
能见度10公里或以上
1500米以下无云,无积雨云

TAF: UDYZ 312318Z 0100/0124 16006KT CAVOK

超过4000个机场的气象观测和天气预报(METAR&TAF报告)。

可查询的气象台以黄色和红色小点在地图上表示。

将鼠标移到小点上方,可查看气象台名称。

然后点击查看天气观测和预报。

如需切换地图:点击带黑十字的绿色按钮放大地图;点击带横线的绿色按钮缩小地图;或者点击绿色箭头查看邻近地区的地图。


METAR-TAF: